Time;durP1;ratioP1;P1;durP2;ratioP2;P2;SDS_P1;SDS_P2;PMS_P1;PMS_P2;Temp;Humidity;BMP_temperature;BMP_pressure;BME280_temperature;BME280_humidity;BME280_pressure;Samples;Min_cycle;Max_cycle;Signal;HPM_P1;HPM_P2
2022/05/27 00:00:00;;;;;;;27.40;25.80;;;15.10;79.20;;;;;;5070888;28;20465;-72
2022/05/27 00:02:27;;;;;;;25.77;24.37;;;15.10;79.30;;;;;;5079626;27;20866;-71
2022/05/27 00:04:54;;;;;;;25.90;24.40;;;15.20;78.80;;;;;;5083783;28;20474;-71
2022/05/27 00:07:21;;;;;;;26.37;24.97;;;15.10;79.20;;;;;;5087305;28;20501;-72
2022/05/27 00:09:49;;;;;;;26.90;25.60;;;15.10;79.60;;;;;;5094864;28;20473;-72
2022/05/27 00:12:16;;;;;;;26.93;25.10;;;15.10;79.60;;;;;;5088574;28;20450;-71
2022/05/27 00:14:43;;;;;;;26.33;24.83;;;15.00;80.00;;;;;;5079106;28;20477;-72
2022/05/27 00:17:10;;;;;;;25.80;24.50;;;14.90;80.30;;;;;;5078506;28;20576;-71
2022/05/27 00:19:37;;;;;;;26.30;24.80;;;14.90;80.20;;;;;;5099423;28;20453;-71
2022/05/27 00:22:04;;;;;;;27.17;25.67;;;14.80;80.50;;;;;;5081122;28;20468;-71
2022/05/27 00:24:31;;;;;;;26.73;25.13;;;14.90;80.50;;;;;;5085009;28;20529;-71
2022/05/27 00:27:01;;;;;;;25.83;24.43;;;14.80;80.60;;;;;;5089043;28;20968;-72
2022/05/27 00:29:28;;;;;;;25.87;24.47;;;14.80;80.60;;;;;;5092851;28;20458;-71
2022/05/27 00:31:55;;;;;;;25.60;24.20;;;14.80;80.50;;;;;;5080712;28;20569;-74
2022/05/27 00:34:21;;;;;;;25.93;24.43;;;14.80;80.50;;;;;;5082634;28;21217;-73
2022/05/27 00:36:48;;;;;;;25.53;24.23;;;14.70;80.60;;;;;;5075491;28;20960;-72
2022/05/27 00:39:15;;;;;;;25.63;24.30;;;14.70;80.60;;;;;;5076405;28;20476;-73
2022/05/27 00:41:42;;;;;;;25.77;24.27;;;14.70;80.70;;;;;;5088540;28;20943;-74
2022/05/27 00:44:11;;;;;;;25.70;24.30;;;14.70;80.80;;;;;;5085029;28;20464;-73
2022/05/27 00:46:41;;;;;;;25.80;24.40;;;14.70;80.90;;;;;;5088519;28;20488;-73
2022/05/27 00:49:13;;;;;;;25.60;24.30;;;14.70;80.90;;;;;;5078457;28;20535;-76
2022/05/27 00:51:48;;;;;;;26.20;24.80;;;14.70;80.80;;;;;;5086253;28;20457;-74
2022/05/27 00:54:18;;;;;;;25.57;24.10;;;14.70;80.90;;;;;;5074805;28;20944;-71
2022/05/27 00:56:48;;;;;;;25.77;24.37;;;14.60;81.00;;;;;;5080171;28;20441;-71
2022/05/27 00:59:23;;;;;;;27.17;25.67;;;14.70;80.90;;;;;;5086334;28;21158;-71
2022/05/27 01:01:50;;;;;;;28.07;26.37;;;14.80;80.50;;;;;;5071895;28;20526;-71
2022/05/27 01:04:18;;;;;;;26.63;25.13;;;14.70;80.80;;;;;;5088280;28;20718;-71
2022/05/27 01:06:45;;;;;;;27.80;26.20;;;14.70;80.90;;;;;;5084355;28;20553;-71
2022/05/27 01:09:14;;;;;;;25.47;24.20;;;14.60;81.10;;;;;;5083314;28;20532;-71
2022/05/27 01:12:03;;;;;;;25.70;24.40;;;14.50;81.40;;;;;;5085884;28;20472;-71
2022/05/27 01:14:44;;;;;;;25.73;24.23;;;14.50;81.70;;;;;;5082229;28;21136;-72
2022/05/27 01:17:19;;;;;;;24.83;23.50;;;14.40;82.10;;;;;;5090482;28;20481;-73
2022/05/27 01:20:19;;;;;;;24.90;23.60;;;14.40;82.10;;;;;;5081356;28;20496;-73
2022/05/27 01:23:18;;;;;;;24.47;23.10;;;14.40;82.20;;;;;;5078059;28;20561;-73
2022/05/27 01:26:34;;;;;;;24.90;23.60;;;14.30;82.20;;;;;;5050070;28;20482;-74
2022/05/27 01:29:34;;;;;;;25.30;23.83;;;14.40;82.20;;;;;;5083062;28;20451;-73
2022/05/27 01:32:07;;;;;;;25.03;23.50;;;14.30;82.20;;;;;;5068010;28;20840;-73
2022/05/27 01:34:46;;;;;;;24.50;23.17;;;14.20;82.60;;;;;;5071889;28;20458;-72
2022/05/27 01:37:20;;;;;;;25.17;23.67;;;14.20;82.70;;;;;;5077683;28;20464;-72
2022/05/27 01:39:51;;;;;;;24.53;23.23;;;14.30;82.40;;;;;;5083819;28;20457;-73
2022/05/27 01:42:27;;;;;;;24.83;23.53;;;14.20;82.70;;;;;;5086719;28;20836;-71
2022/05/27 01:44:59;;;;;;;25.80;24.33;;;14.10;82.90;;;;;;5083991;28;20458;-72
2022/05/27 01:47:35;;;;;;;25.10;23.70;;;14.20;82.90;;;;;;5089647;28;20757;-71
2022/05/27 01:50:07;;;;;;;24.43;23.17;;;14.10;83.30;;;;;;5085064;28;20453;-72
2022/05/27 01:52:41;;;;;;;25.07;23.57;;;14.00;83.40;;;;;;5078692;28;20446;-71
2022/05/27 01:55:12;;;;;;;25.13;23.70;;;14.00;83.50;;;;;;5071367;28;21343;-71
2022/05/27 01:57:46;;;;;;;25.33;24.03;;;14.00;83.50;;;;;;5083617;28;20462;-71
2022/05/27 02:00:17;;;;;;;25.47;24.20;;;14.00;83.50;;;;;;5077361;28;20548;-71
2022/05/27 02:02:51;;;;;;;25.87;24.57;;;14.00;83.60;;;;;;5077721;28;20469;-71
2022/05/27 02:05:23;;;;;;;25.70;24.40;;;14.00;83.60;;;;;;5085019;28;20661;-72
2022/05/27 02:07:55;;;;;;;24.60;23.27;;;14.00;83.50;;;;;;5086147;28;20454;-71
2022/05/27 02:10:27;;;;;;;25.40;24.00;;;14.00;83.60;;;;;;5083057;28;20474;-71
2022/05/27 02:12:57;;;;;;;23.83;22.63;;;14.00;83.60;;;;;;5072105;28;22247;-71
2022/05/27 02:15:30;;;;;;;24.70;23.40;;;13.90;83.60;;;;;;5075974;28;20577;-71
2022/05/27 02:18:02;;;;;;;26.53;25.13;;;13.90;83.70;;;;;;5081901;28;20456;-71
2022/05/27 02:20:32;;;;;;;26.03;24.63;;;13.90;83.80;;;;;;5082716;28;20450;-72
2022/05/27 02:23:02;;;;;;;24.47;23.20;;;13.90;83.70;;;;;;5084557;28;20915;-71
2022/05/27 02:25:33;;;;;;;24.20;23.00;;;13.90;83.70;;;;;;5074441;28;20480;-71
2022/05/27 02:28:05;;;;;;;24.90;23.60;;;13.90;83.80;;;;;;5086312;28;20904;-71
2022/05/27 02:30:36;;;;;;;24.07;22.73;;;13.90;83.70;;;;;;5083531;28;20448;-71
2022/05/27 02:35:56;;;;;;;24.80;23.50;;;13.90;83.90;;;;;;5081676;28;20481;-73
2022/05/27 02:38:23;;;;;;;24.03;22.73;;;13.90;84.20;;;;;;5084601;28;20549;-71
2022/05/27 02:40:59;;;;;;;24.57;23.37;;;13.90;83.90;;;;;;5076311;28;20462;-71
2022/05/27 02:43:37;;;;;;;26.47;24.97;;;14.00;83.50;;;;;;5086832;28;20461;-71
2022/05/27 02:46:15;;;;;;;24.90;23.50;;;13.80;83.90;;;;;;5089041;28;20488;-70
2022/05/27 02:48:53;;;;;;;23.90;22.53;;;13.90;83.90;;;;;;5085851;28;20459;-74
2022/05/27 02:51:24;;;;;;;25.50;24.03;;;13.90;83.50;;;;;;5081545;28;20807;-74
2022/05/27 02:53:56;;;;;;;25.40;24.10;;;13.80;84.10;;;;;;5089221;28;20457;-73
2022/05/27 02:56:28;;;;;;;27.10;25.70;;;13.70;84.30;;;;;;5085399;28;20788;-75
2022/05/27 02:58:55;;;;;;;25.17;23.87;;;13.70;84.40;;;;;;5092538;28;20461;-72
2022/05/27 03:01:23;;;;;;;24.70;23.40;;;13.70;84.60;;;;;;5092418;28;20461;-73
2022/05/27 03:03:51;;;;;;;25.50;24.00;;;13.70;84.70;;;;;;5088288;28;20446;-72
2022/05/27 03:06:39;;;;;;;25.20;23.90;;;13.70;84.50;;;;;;5081602;28;20571;-72
2022/05/27 03:09:10;;;;;;;25.17;23.70;;;13.80;84.30;;;;;;5083750;28;20835;-74
2022/05/27 03:11:49;;;;;;;24.80;23.40;;;13.70;84.40;;;;;;5090651;28;20452;-74
2022/05/27 03:14:37;;;;;;;24.47;23.10;;;13.80;84.50;;;;;;5080653;28;20549;-74
2022/05/27 03:17:23;;;;;;;24.50;23.20;;;13.80;84.20;;;;;;5081322;28;20457;-73
2022/05/27 03:20:06;;;;;;;23.90;22.70;;;13.90;83.70;;;;;;5084862;28;20456;-73
2022/05/27 03:22:44;;;;;;;24.80;23.50;;;14.00;83.50;;;;;;5074238;28;20458;-72
2022/05/27 03:25:19;;;;;;;26.20;24.80;;;13.90;83.80;;;;;;5082512;28;20479;-73
2022/05/27 03:27:58;;;;;;;25.43;24.13;;;14.00;83.40;;;;;;5088646;28;20456;-72
2022/05/27 03:30:31;;;;;;;25.10;23.70;;;14.00;83.30;;;;;;5083768;28;20660;-75
2022/05/27 03:33:08;;;;;;;27.07;25.50;;;14.10;83.30;;;;;;5086124;28;20562;-72
2022/05/27 03:35:41;;;;;;;24.67;23.37;;;14.10;83.10;;;;;;5073253;28;20485;-75
2022/05/27 03:38:12;;;;;;;29.20;27.47;;;14.20;82.90;;;;;;5080827;28;20552;-72
2022/05/27 03:40:46;;;;;;;27.47;25.77;;;14.20;82.80;;;;;;5085793;28;20454;-75
2022/05/27 03:43:14;;;;;;;25.70;24.30;;;14.20;83.00;;;;;;5074101;28;20545;-72
2022/05/27 03:45:52;;;;;;;26.80;25.40;;;14.20;82.90;;;;;;5078849;28;20565;-74
2022/05/27 03:48:20;;;;;;;27.00;25.60;;;14.20;82.90;;;;;;5084883;28;20450;-74
2022/05/27 03:50:52;;;;;;;26.07;24.47;;;14.30;82.70;;;;;;5084820;28;20449;-71
2022/05/27 03:53:20;;;;;;;30.00;28.63;;;14.50;82.30;;;;;;5090490;28;20481;-74
2022/05/27 03:55:47;;;;;;;27.07;25.57;;;14.50;82.10;;;;;;5087792;28;20830;-75
2022/05/27 03:58:15;;;;;;;25.17;23.80;;;14.50;81.90;;;;;;5098239;28;20459;-73
2022/05/27 04:00:42;;;;;;;28.23;26.73;;;14.60;81.50;;;;;;5086815;28;21037;-72
2022/05/27 04:03:10;;;;;;;25.07;23.67;;;14.70;80.70;;;;;;5088842;28;20460;-71
2022/05/27 04:05:38;;;;;;;25.70;24.30;;;14.70;80.70;;;;;;5081736;28;20475;-71
2022/05/27 04:08:07;;;;;;;27.10;25.60;;;14.70;80.70;;;;;;5084714;28;20479;-70
2022/05/27 04:10:34;;;;;;;27.03;25.50;;;14.70;80.40;;;;;;5078597;28;21098;-71
2022/05/27 04:13:01;;;;;;;28.27;26.63;;;14.70;80.40;;;;;;5080032;28;20554;-70
2022/05/27 04:15:28;;;;;;;26.53;24.63;;;14.70;80.60;;;;;;5087594;28;20481;-71
2022/05/27 04:17:54;;;;;;;26.10;24.60;;;14.80;80.70;;;;;;5088569;28;20654;-72
2022/05/27 04:20:22;;;;;;;25.80;24.30;;;14.90;80.30;;;;;;5085397;28;20974;-71
2022/05/27 04:22:54;;;;;;;30.00;28.60;;;14.90;80.30;;;;;;5093360;28;20474;-71
2022/05/27 04:25:22;;;;;;;25.30;23.90;;;15.00;80.20;;;;;;5075847;28;20474;-70
2022/05/27 04:27:50;;;;;;;26.73;25.30;;;15.10;79.60;;;;;;5084345;28;20477;-71
2022/05/27 04:30:17;;;;;;;26.10;24.50;;;15.20;79.10;;;;;;5081641;28;20937;-71
2022/05/27 04:32:44;;;;;;;29.03;27.33;;;15.20;79.10;;;;;;5073513;28;20903;-72
2022/05/27 04:35:11;;;;;;;26.80;25.40;;;15.20;79.20;;;;;;5082881;28;20471;-71
2022/05/27 04:37:38;;;;;;;26.77;25.30;;;15.20;79.20;;;;;;5080431;28;20452;-72
2022/05/27 04:40:06;;;;;;;25.00;23.70;;;15.20;79.30;;;;;;5079849;28;20465;-71
2022/05/27 04:42:34;;;;;;;27.43;25.73;;;15.30;79.20;;;;;;5084077;28;20488;-71
2022/05/27 04:45:03;;;;;;;26.17;24.63;;;15.50;78.60;;;;;;5078374;28;20975;-70
2022/05/27 04:47:30;;;;;;;28.17;26.47;;;15.60;78.30;;;;;;5079264;28;20470;-71
2022/05/27 04:49:58;;;;;;;31.80;30.10;;;15.60;78.20;;;;;;5070908;28;20461;-72
2022/05/27 04:52:29;;;;;;;27.50;26.00;;;15.50;78.40;;;;;;5085084;28;20476;-71
2022/05/27 04:54:58;;;;;;;30.10;28.40;;;15.60;78.40;;;;;;5079270;28;20478;-70
2022/05/27 04:57:30;;;;;;;27.13;25.63;;;15.70;78.40;;;;;;5076167;28;20458;-71
2022/05/27 04:59:58;;;;;;;25.60;24.20;;;15.80;78.70;;;;;;5077340;28;20457;-72
2022/05/27 05:02:25;;;;;;;27.57;26.00;;;15.90;78.20;;;;;;5085019;28;20476;-72
2022/05/27 05:04:53;;;;;;;26.97;25.30;;;16.10;77.30;;;;;;5086613;28;20557;-71
2022/05/27 05:07:23;;;;;;;25.90;24.50;;;16.20;76.90;;;;;;5077446;28;20470;-73
2022/05/27 05:09:50;;;;;;;26.27;24.87;;;16.20;76.70;;;;;;5082226;28;20465;-73
2022/05/27 05:12:22;;;;;;;26.30;24.90;;;16.20;76.70;;;;;;5081829;28;20874;-74
2022/05/27 05:14:49;;;;;;;28.70;27.13;;;16.30;76.40;;;;;;5093324;28;20996;-73
2022/05/27 05:17:18;;;;;;;26.40;24.90;;;16.40;76.10;;;;;;5084848;28;21104;-72
2022/05/27 05:19:45;;;;;;;31.20;29.50;;;16.50;75.90;;;;;;5083947;28;20562;-73
2022/05/27 05:22:13;;;;;;;26.80;25.40;;;16.50;75.90;;;;;;5081243;28;20454;-72
2022/05/27 05:24:40;;;;;;;26.83;25.23;;;16.50;75.90;;;;;;5083405;28;20465;-74
2022/05/27 05:27:07;;;;;;;26.97;25.40;;;16.50;76.00;;;;;;5082209;28;20500;-73
2022/05/27 05:29:34;;;;;;;25.70;24.07;;;16.60;75.70;;;;;;5087785;28;20544;-76
2022/05/27 05:32:01;;;;;;;27.63;26.17;;;16.60;75.50;;;;;;5080930;28;20457;-74
2022/05/27 05:34:29;;;;;;;26.60;24.90;;;16.80;75.20;;;;;;5088136;28;20580;-72
2022/05/27 05:36:59;;;;;;;27.20;25.70;;;16.80;74.70;;;;;;5082064;28;20532;-72
2022/05/27 05:39:26;;;;;;;27.27;25.77;;;16.90;74.40;;;;;;5086413;28;20579;-75
2022/05/27 05:41:58;;;;;;;26.87;25.37;;;16.90;74.50;;;;;;5088087;28;20475;-73
2022/05/27 05:44:26;;;;;;;27.93;26.07;;;16.80;74.70;;;;;;5080943;28;20523;-75
2022/05/27 05:46:53;;;;;;;28.23;26.60;;;16.80;74.80;;;;;;5082496;28;20480;-73
2022/05/27 05:49:21;;;;;;;30.20;28.40;;;16.90;74.80;;;;;;5082772;28;20461;-73
2022/05/27 05:51:49;;;;;;;26.83;25.33;;;16.90;75.00;;;;;;5093870;28;20455;-74
2022/05/27 05:54:19;;;;;;;28.27;26.67;;;17.00;74.50;;;;;;5087577;28;20551;-74
2022/05/27 05:56:46;;;;;;;26.40;25.00;;;17.00;74.60;;;;;;5071724;28;20477;-72
2022/05/27 05:59:13;;;;;;;27.10;25.50;;;17.00;74.60;;;;;;5079780;28;20454;-74
2022/05/27 06:01:40;;;;;;;26.90;25.40;;;17.20;74.10;;;;;;5079989;28;20468;-73
2022/05/27 06:04:07;;;;;;;26.90;25.40;;;17.20;74.10;;;;;;5082194;28;20556;-75
2022/05/27 06:06:34;;;;;;;28.73;27.23;;;17.20;74.20;;;;;;5086147;28;20474;-73
2022/05/27 06:09:03;;;;;;;31.17;29.30;;;17.40;73.60;;;;;;5090235;28;20938;-74
2022/05/27 06:11:30;;;;;;;28.63;27.00;;;17.50;73.30;;;;;;5086896;28;22339;-72
2022/05/27 06:13:57;;;;;;;28.53;27.00;;;17.50;73.20;;;;;;5080423;28;20542;-72
2022/05/27 06:16:24;;;;;;;27.10;25.60;;;17.60;73.00;;;;;;5084598;28;20568;-73
2022/05/27 06:18:51;;;;;;;27.20;25.50;;;17.60;72.90;;;;;;5088806;28;20457;-72
2022/05/27 06:21:18;;;;;;;30.40;28.70;;;17.60;72.60;;;;;;5092210;28;21030;-72
2022/05/27 06:23:45;;;;;;;28.00;26.30;;;17.60;72.70;;;;;;5087464;28;20544;-70
2022/05/27 06:26:13;;;;;;;27.67;25.77;;;17.60;72.80;;;;;;5087684;28;20881;-71
2022/05/27 06:34:25;;;;;;;28.17;26.57;;;17.80;72.70;;;;;;5086939;28;20505;-71
2022/05/27 06:36:53;;;;;;;27.40;25.77;;;17.70;72.90;;;;;;5093611;28;20564;-71
2022/05/27 06:39:20;;;;;;;29.03;27.30;;;17.80;73.00;;;;;;5076457;28;20872;-71
2022/05/27 06:41:50;;;;;;;26.70;25.20;;;17.90;72.40;;;;;;5084774;28;20457;-71
2022/05/27 06:44:17;;;;;;;27.33;25.63;;;17.90;72.40;;;;;;5078649;28;20450;-71
2022/05/27 06:46:45;;;;;;;27.50;25.80;;;18.00;72.40;;;;;;5090092;28;20469;-72
2022/05/27 06:49:13;;;;;;;28.03;26.43;;;18.10;72.00;;;;;;5094503;28;20572;-71
2022/05/27 06:51:41;;;;;;;26.90;25.30;;;18.10;71.90;;;;;;5088869;28;20558;-70
2022/05/27 06:54:09;;;;;;;27.27;25.50;;;18.10;71.80;;;;;;5090745;28;20549;-71
2022/05/27 06:56:37;;;;;;;27.10;25.60;;;18.10;71.90;;;;;;5104777;28;20633;-71
2022/05/27 06:59:06;;;;;;;28.17;26.57;;;18.10;71.90;;;;;;5085032;28;20460;-72
2022/05/27 07:01:32;;;;;;;27.80;26.30;;;18.10;72.00;;;;;;5095868;27;20966;-71
2022/05/27 07:03:59;;;;;;;27.53;25.93;;;18.10;72.00;;;;;;5083554;28;20500;-72
2022/05/27 07:06:31;;;;;;;27.53;25.70;;;18.10;71.90;;;;;;5089703;28;20477;-72
2022/05/27 07:08:59;;;;;;;29.10;27.30;;;18.00;71.90;;;;;;5084781;28;20473;-71
2022/05/27 07:11:26;;;;;;;26.57;24.53;;;17.80;73.00;;;;;;5073880;28;20461;-72
2022/05/27 07:13:53;;;;;;;26.30;24.70;;;17.70;73.00;;;;;;5086789;28;20459;-72
2022/05/27 07:16:21;;;;;;;27.23;25.63;;;17.50;73.60;;;;;;5088922;28;20480;-71
2022/05/27 07:18:48;;;;;;;26.97;25.30;;;17.50;73.90;;;;;;5078142;28;20988;-71
2022/05/27 07:21:15;;;;;;;26.80;25.20;;;17.50;74.00;;;;;;5091513;28;20970;-72
2022/05/27 07:23:44;;;;;;;25.87;24.47;;;17.60;73.70;;;;;;5082448;28;20457;-70
2022/05/27 07:26:11;;;;;;;27.53;26.00;;;17.80;73.50;;;;;;5080070;28;20470;-71
2022/05/27 07:28:38;;;;;;;27.00;25.50;;;18.00;72.80;;;;;;5088331;28;21002;-72
2022/05/27 07:31:05;;;;;;;27.20;25.70;;;18.10;72.50;;;;;;5087801;28;20462;-74
2022/05/27 07:33:33;;;;;;;25.60;24.30;;;18.10;72.30;;;;;;5069225;28;20535;-73
2022/05/27 07:36:00;;;;;;;26.80;25.30;;;18.10;72.00;;;;;;5080236;28;20469;-75
2022/05/27 07:38:27;;;;;;;26.13;24.63;;;17.90;72.30;;;;;;5081780;28;20454;-74
2022/05/27 07:40:54;;;;;;;26.97;25.43;;;17.80;72.70;;;;;;5086852;28;20544;-73
2022/05/27 07:43:21;;;;;;;26.30;24.80;;;17.70;73.40;;;;;;5091549;28;20987;-73
2022/05/27 07:45:49;;;;;;;27.10;25.50;;;17.80;73.20;;;;;;5097503;28;20482;-76
2022/05/27 07:48:16;;;;;;;27.73;26.23;;;18.10;72.50;;;;;;5080346;28;20492;-74
2022/05/27 07:50:45;;;;;;;26.83;25.33;;;18.40;71.70;;;;;;5085453;28;20454;-76
2022/05/27 07:53:12;;;;;;;26.83;25.30;;;18.70;71.30;;;;;;5083123;28;20462;-79
2022/05/27 07:55:39;;;;;;;29.60;28.00;;;18.80;69.80;;;;;;5078822;28;20597;-77
2022/05/27 07:58:08;;;;;;;27.40;25.90;;;18.50;70.40;;;;;;5086264;28;20456;-76
2022/05/27 08:00:37;;;;;;;27.50;26.00;;;18.50;71.10;;;;;;5082424;28;20455;-77
2022/05/27 08:03:05;;;;;;;27.30;25.70;;;18.30;71.30;;;;;;5071916;28;20536;-76
2022/05/27 08:05:33;;;;;;;28.93;27.33;;;18.40;71.00;;;;;;5081909;28;20477;-75
2022/05/27 08:08:03;;;;;;;26.37;24.87;;;18.60;70.70;;;;;;5087089;28;20485;-76
2022/05/27 08:10:32;;;;;;;27.33;25.80;;;18.60;70.30;;;;;;5038430;28;1102216;-78
2022/05/27 08:12:59;;;;;;;27.00;25.40;;;18.60;70.50;;;;;;5101241;28;20200;-74
2022/05/27 08:15:27;;;;;;;26.97;25.43;;;18.70;70.00;;;;;;5087093;28;20476;-72
2022/05/27 08:17:54;;;;;;;28.33;26.70;;;18.60;69.60;;;;;;5078893;28;20454;-77
2022/05/27 08:20:24;;;;;;;26.77;24.97;;;18.50;70.60;;;;;;5099240;28;20460;-74
2022/05/27 08:22:53;;;;;;;26.87;25.47;;;18.50;70.40;;;;;;5084799;28;20541;-75
2022/05/27 08:25:22;;;;;;;26.67;25.17;;;18.30;70.70;;;;;;5087708;28;20569;-77
2022/05/27 08:27:50;;;;;;;26.17;24.73;;;18.50;70.40;;;;;;5084073;28;20476;-74
2022/05/27 08:30:20;;;;;;;25.40;24.10;;;18.60;70.50;;;;;;5088073;28;20460;-74
2022/05/27 08:32:48;;;;;;;26.50;24.90;;;18.80;69.90;;;;;;5088619;28;20457;-77
2022/05/27 08:38:07;;;;;;;26.40;24.70;;;19.00;69.20;;;;;;5079158;28;20473;-76
2022/05/27 08:40:52;;;;;;;25.33;23.70;;;19.00;68.80;;;;;;5088951;28;20458;-71
2022/05/27 08:43:30;;;;;;;26.07;24.50;;;18.90;68.80;;;;;;5083788;28;20537;-69
2022/05/27 08:46:05;;;;;;;29.50;27.97;;;18.80;69.10;;;;;;5100632;28;20478;-70
2022/05/27 08:48:40;;;;;;;28.93;27.13;;;18.80;69.10;;;;;;5098426;28;21123;-70
2022/05/27 08:51:15;;;;;;;28.70;27.00;;;18.70;69.50;;;;;;5081610;28;20470;-75
2022/05/27 08:53:46;;;;;;;26.37;24.77;;;18.60;69.90;;;;;;5085526;28;20452;-75
2022/05/27 08:59:31;;;;;;;27.70;26.17;;;18.50;70.00;;;;;;5083100;28;20470;-69
2022/05/27 09:02:03;;;;;;;25.70;24.10;;;18.50;70.20;;;;;;5082398;28;20484;-72
2022/05/27 09:04:36;;;;;;;25.47;24.10;;;18.70;70.20;;;;;;5083147;28;20460;-69
2022/05/27 09:07:15;;;;;;;26.67;25.07;;;19.00;69.10;;;;;;5094469;28;20485;-70
2022/05/27 09:09:42;;;;;;;25.43;24.03;;;19.10;68.20;;;;;;5082477;28;20885;-70
2022/05/27 09:12:34;;;;;;;27.90;26.37;;;18.90;68.50;;;;;;5086005;28;20474;-71
2022/05/27 09:15:04;;;;;;;27.80;26.20;;;18.90;68.90;;;;;;5080276;28;20572;-72
2022/05/27 09:17:42;;;;;;;27.93;26.23;;;18.90;68.90;;;;;;5088152;28;20461;-73
2022/05/27 09:20:19;;;;;;;25.63;24.33;;;19.20;68.40;;;;;;5095448;28;20545;-73
2022/05/27 09:22:56;;;;;;;26.93;25.33;;;19.10;68.00;;;;;;5075339;28;20453;-68
2022/05/27 09:25:31;;;;;;;25.93;24.33;;;19.30;67.50;;;;;;5078100;28;20995;-73
2022/05/27 09:28:10;;;;;;;25.93;24.43;;;19.50;67.30;;;;;;5078967;28;20493;-76
2022/05/27 09:30:38;;;;;;;26.20;24.77;;;19.70;66.40;;;;;;5081257;28;20465;-74
2022/05/27 09:33:07;;;;;;;28.03;26.23;;;19.90;65.30;;;;;;5085524;28;20461;-78
2022/05/27 09:35:38;;;;;;;27.20;25.70;;;20.10;65.20;;;;;;5077620;28;20557;-73
2022/05/27 09:38:07;;;;;;;27.10;25.43;;;20.40;64.10;;;;;;5079087;28;20450;-73
2022/05/27 09:40:39;;;;;;;25.60;24.20;;;20.70;63.00;;;;;;5083622;28;20720;-74
2022/05/27 09:43:14;;;;;;;27.13;25.43;;;20.90;62.30;;;;;;5082248;28;20960;-74
2022/05/27 09:45:43;;;;;;;26.53;25.03;;;21.20;60.30;;;;;;5085892;28;20482;-73
2022/05/27 09:48:11;;;;;;;26.80;25.37;;;21.40;60.00;;;;;;5085063;28;20478;-73
2022/05/27 09:50:42;;;;;;;27.83;25.87;;;21.50;59.00;;;;;;5084615;28;20517;-74
2022/05/27 09:53:15;;;;;;;26.47;24.77;;;21.80;59.10;;;;;;5091522;28;20896;-72
2022/05/27 09:55:51;;;;;;;25.97;24.53;;;21.90;58.30;;;;;;5087768;28;20930;-72
2022/05/27 09:58:27;;;;;;;26.03;24.63;;;21.90;57.70;;;;;;5085034;28;20445;-73
2022/05/27 10:00:55;;;;;;;26.43;24.93;;;21.00;58.50;;;;;;5097107;28;20849;-73
2022/05/27 10:03:28;;;;;;;27.83;26.30;;;20.40;59.70;;;;;;5080778;28;20469;-73
2022/05/27 10:05:58;;;;;;;26.00;24.50;;;20.30;60.30;;;;;;5086634;28;20481;-73
2022/05/27 10:08:43;;;;;;;25.47;23.90;;;20.00;60.90;;;;;;5084075;28;20517;-74
2022/05/27 10:11:16;;;;;;;26.13;24.70;;;20.10;61.20;;;;;;5095628;28;20454;-74
2022/05/27 10:13:45;;;;;;;25.60;24.10;;;20.10;60.30;;;;;;5083434;28;20456;-72
2022/05/27 10:16:15;;;;;;;26.23;24.73;;;20.40;59.40;;;;;;5085586;28;20765;-72
2022/05/27 10:18:44;;;;;;;25.70;24.37;;;20.40;59.40;;;;;;5086195;28;20454;-74
2022/05/27 10:21:14;;;;;;;26.40;25.00;;;20.20;58.30;;;;;;5084436;28;20458;-73
2022/05/27 10:23:45;;;;;;;26.90;25.30;;;20.40;58.40;;;;;;5098823;28;20452;-74
2022/05/27 10:26:24;;;;;;;26.20;24.80;;;20.70;56.50;;;;;;5083363;28;20476;-73
2022/05/27 10:29:02;;;;;;;25.73;24.17;;;21.10;56.30;;;;;;5084704;28;20556;-72
2022/05/27 10:31:30;;;;;;;25.13;23.83;;;21.60;55.50;;;;;;5085320;28;20511;-72
2022/05/27 10:33:58;;;;;;;26.23;24.83;;;22.00;53.80;;;;;;5085930;28;20457;-72
2022/05/27 10:36:52;;;;;;;25.23;23.73;;;22.00;54.70;;;;;;5087479;28;20483;-72
2022/05/27 10:39:27;;;;;;;28.40;26.80;;;21.70;55.10;;;;;;5085388;28;20450;-72
2022/05/27 10:42:15;;;;;;;25.50;24.20;;;21.50;55.20;;;;;;5084281;28;20453;-74
2022/05/27 10:44:58;;;;;;;26.67;25.17;;;21.10;54.60;;;;;;5076225;28;20473;-74
2022/05/27 10:47:45;;;;;;;25.27;23.87;;;21.00;55.80;;;;;;5084300;28;20457;-73
2022/05/27 10:50:22;;;;;;;25.67;24.37;;;21.30;54.90;;;;;;5078267;28;21686;-72
2022/05/27 10:53:06;;;;;;;26.60;25.10;;;21.70;55.00;;;;;;5083838;28;20456;-72
2022/05/27 10:55:43;;;;;;;26.90;25.50;;;22.10;54.80;;;;;;5083276;28;20465;-73
2022/05/27 11:04:32;;;;;;;25.80;24.50;;;22.50;52.70;;;;;;5081127;28;20453;-71
2022/05/27 11:07:17;;;;;;;26.80;25.40;;;22.20;52.70;;;;;;5087601;28;20890;-71
2022/05/27 11:09:55;;;;;;;26.87;25.40;;;21.80;54.10;;;;;;5084069;28;20476;-73
2022/05/27 11:15:10;;;;;;;25.33;24.03;;;21.50;54.00;;;;;;5083355;28;20453;-74
2022/05/27 11:15:33;;;;;;;26.87;25.20;;;21.30;55.30;;;;;;5078725;28;20465;-74
2022/05/27 11:18:08;;;;;;;26.50;25.10;;;21.50;54.90;;;;;;5086835;28;20445;-74
2022/05/27 11:20:56;;;;;;;25.90;24.43;;;21.20;54.90;;;;;;5084955;28;20476;-73
2022/05/27 11:23:44;;;;;;;28.57;26.97;;;21.00;55.70;;;;;;5079469;28;21013;-74
2022/05/27 11:26:20;;;;;;;25.97;24.40;;;21.10;55.70;;;;;;5088405;28;20474;-73
2022/05/27 11:29:21;;;;;;;25.80;24.40;;;21.30;55.60;;;;;;5086376;28;20479;-71
2022/05/27 11:32:05;;;;;;;25.00;23.70;;;21.50;55.00;;;;;;5084223;28;20468;-72
2022/05/27 11:34:43;;;;;;;25.00;23.50;;;21.80;54.60;;;;;;5085148;28;20519;-73
2022/05/27 11:37:41;;;;;;;25.57;24.23;;;22.10;54.40;;;;;;5084417;28;20965;-71
2022/05/27 11:40:21;;;;;;;25.60;24.10;;;22.10;53.60;;;;;;5089599;28;20449;-73
2022/05/27 11:43:18;;;;;;;24.90;23.60;;;21.90;54.40;;;;;;5088288;28;20493;-75
2022/05/27 11:45:56;;;;;;;28.70;27.20;;;22.20;54.60;;;;;;5084980;28;20873;-73
2022/05/27 11:48:30;;;;;;;25.50;24.20;;;22.50;53.50;;;;;;5084785;28;20505;-73
2022/05/27 11:51:24;;;;;;;28.50;27.00;;;22.30;53.50;;;;;;5087165;28;20460;-72
2022/05/27 11:54:08;;;;;;;26.57;25.27;;;21.90;54.50;;;;;;5086957;28;20548;-71
2022/05/27 11:56:44;;;;;;;25.30;24.00;;;21.80;55.00;;;;;;5087720;28;20508;-71
2022/05/27 11:59:20;;;;;;;25.50;24.20;;;22.10;54.80;;;;;;5079257;28;20548;-71
2022/05/27 12:01:51;;;;;;;28.07;26.27;;;22.40;54.40;;;;;;5084133;28;20545;-72
2022/05/27 12:04:31;;;;;;;27.70;26.20;;;22.50;53.80;;;;;;5091492;27;20450;-71
2022/05/27 12:07:07;;;;;;;27.07;25.67;;;22.80;53.80;;;;;;5086581;28;20462;-71
2022/05/27 12:09:39;;;;;;;25.50;24.20;;;23.10;53.50;;;;;;5080719;28;20474;-72
2022/05/27 12:12:09;;;;;;;26.07;24.77;;;23.60;52.60;;;;;;5087797;28;20458;-72
2022/05/27 12:14:41;;;;;;;27.03;25.33;;;23.90;52.00;;;;;;5079771;28;20545;-71
2022/05/27 12:17:13;;;;;;;28.80;27.20;;;24.10;51.60;;;;;;5086277;28;20465;-72
2022/05/27 12:19:45;;;;;;;28.90;27.30;;;24.30;51.60;;;;;;5089478;28;20459;-73
2022/05/27 12:22:18;;;;;;;26.93;25.43;;;24.50;51.50;;;;;;5084576;28;20528;-72
2022/05/27 12:24:48;;;;;;;29.10;27.50;;;24.70;51.70;;;;;;5087971;28;21097;-71
2022/05/27 12:27:18;;;;;;;26.40;25.10;;;24.90;50.50;;;;;;5086240;28;20456;-74
2022/05/27 12:29:48;;;;;;;26.07;24.67;;;25.00;50.30;;;;;;5087843;28;20574;-74
2022/05/27 12:32:16;;;;;;;30.07;28.57;;;25.00;50.10;;;;;;5085239;28;20540;-73
2022/05/27 12:34:45;;;;;;;27.20;25.70;;;25.00;50.50;;;;;;5074776;28;20489;-73
2022/05/27 12:37:25;;;;;;;26.47;25.07;;;25.10;50.20;;;;;;5077638;28;21089;-74
2022/05/27 12:40:14;;;;;;;26.67;25.27;;;24.60;50.10;;;;;;5075223;28;20562;-74
2022/05/27 12:42:44;;;;;;;28.27;26.70;;;24.30;51.70;;;;;;5090370;28;20457;-73
2022/05/27 12:45:38;;;;;;;28.83;27.43;;;24.40;51.30;;;;;;5085407;28;20484;-74
2022/05/27 12:48:07;;;;;;;27.70;26.30;;;23.70;52.20;;;;;;5079115;28;20516;-72
2022/05/27 12:50:39;;;;;;;30.50;29.00;;;23.40;52.50;;;;;;5085158;28;20458;-71
2022/05/27 12:53:20;;;;;;;30.10;28.50;;;23.00;53.80;;;;;;5085616;28;20458;-73
2022/05/27 13:01:26;;;;;;;28.40;26.90;;;22.60;55.20;;;;;;5085958;28;20461;-72
2022/05/27 13:03:54;;;;;;;28.17;26.67;;;22.70;55.20;;;;;;5080678;28;20511;-74
2022/05/27 13:06:44;;;;;;;27.13;25.70;;;22.70;55.00;;;;;;5081914;28;20477;-75
2022/05/27 13:09:37;;;;;;;28.30;26.70;;;22.50;55.60;;;;;;5089701;28;20558;-73
2022/05/27 13:12:05;;;;;;;26.20;24.70;;;22.80;55.50;;;;;;5084464;28;20473;-79
2022/05/27 13:14:47;;;;;;;26.50;25.20;;;22.80;54.90;;;;;;5082494;28;20469;-81
2022/05/27 13:17:30;;;;;;;28.90;27.10;;;23.10;54.20;;;;;;5083727;28;20541;-77